Aérodrome :
LOGIN :

S'inscrire | Disclaimer

   EN    FR    IT 

 










Légende :    VFR   VFR Marginal   IFR   IFR Intensif   IFR Très Intensif
Visi : 
Plafond : 
>= 8 km
>= 3000ft
5 à 8 km
1000 à 3000 ft
1500m à 5 km
500 à 1000 ft
800 à 1500m
200 à 500 ft
< 800m
< 200 ft
Symboles :   Orages  Brouillard  Fortes neiges  Fortes précipitations  Vent > 20 kt
SIGMETs :   Divers  Orages  Givrage  Turbulence  Onde Orograph.  Cendres Volcan.







- Altitude de l'aérodrome : 184 ft
- Code IATA : BRU


EBBR - Bruxelles

DERNIER METAR :
  • 190220Z 24009KT 9999 SCT014 07/05 Q1017 NOSIG

METARs EXPIRÉS :
  • 190150Z 25007KT 9999 BKN014 08/05 Q1017 NOSIG
  • 190120Z 26007KT 9999 FEW046 08/05 Q1017 NOSIG
  • 190050Z 26007KT 9999 -RA SCT043 08/05 Q1017 NOSIG
  • 190020Z 27009KT 9999 FEW031 BKN046 08/05 Q1017 NOSIG
  • 182350Z 27008KT 9999 FEW029 BKN044 08/05 Q1017 NOSIG

TAF TAF EBBR
Valide du 19 à 00h jusqu'au 20 à 06h UTC


182310Z 1900/2006 25008KT 9999 SCT035
PROB30
TEMPO 1900/1902 4500 -RA -RADZ SCT008 BKN012
PROB30
TEMPO 1902/1906 BKN007
Pas de NOTAMs connus pour ce terrain.



MET'MAP, la Météo Aéronautique d'un coup d'oeil ! - Copyright ORBIFLY Décembre 2007 - Disclaimer

ORBIFLY MET'MAP TEAM :

Programmation & Développement : Alexandra Zaïnal
Conception & Développement : Baudouin d'Aumeries
Co-Programmation & Développement : Marc-Olivier Méhu
Soutien technique & logistique : Manuel Goepfert

Contact : metmap@orbifly.com




SOURCES & CREDITS :

   NOAA